createdAt,value
2023-03-16T00:00:47.165Z,1011.64
2023-03-16T00:01:47.188Z,1011.61
2023-03-16T00:02:47.159Z,1011.61
2023-03-16T00:03:47.081Z,1011.56
2023-03-16T00:04:47.055Z,1011.60
2023-03-16T00:05:47.041Z,1011.62
2023-03-16T00:06:46.989Z,1011.64
2023-03-16T00:07:46.969Z,1011.64
2023-03-16T00:08:46.933Z,1011.67
2023-03-16T00:09:46.908Z,1011.70
2023-03-16T00:10:46.888Z,1011.68
2023-03-16T00:11:46.844Z,1011.68
2023-03-16T00:12:46.813Z,1011.64
2023-03-16T00:13:46.789Z,1011.63
2023-03-16T00:14:46.760Z,1011.54
2023-03-16T00:15:46.721Z,1011.56
2023-03-16T00:16:46.721Z,1011.54
2023-03-16T00:17:46.661Z,1011.51
2023-03-16T00:18:46.636Z,1011.55
2023-03-16T00:19:46.610Z,1011.49
2023-03-16T00:20:46.572Z,1011.53
2023-03-16T00:21:46.568Z,1011.49
2023-03-16T00:22:46.521Z,1011.46
2023-03-16T00:23:46.487Z,1011.48
2023-03-16T00:24:46.452Z,1011.49
2023-03-16T00:25:46.422Z,1011.48
2023-03-16T00:26:46.390Z,1011.50
2023-03-16T00:27:46.366Z,1011.53
2023-03-16T00:28:46.333Z,1011.45
2023-03-16T00:29:46.302Z,1011.47
2023-03-16T00:30:46.272Z,1011.41
2023-03-16T00:31:46.287Z,1011.41
2023-03-16T00:32:46.277Z,1011.45
2023-03-16T00:33:46.179Z,1011.39
2023-03-16T00:34:46.148Z,1011.43
2023-03-16T00:35:46.152Z,1011.38
2023-03-16T00:36:46.092Z,1011.40
2023-03-16T00:37:46.236Z,1011.38
2023-03-16T00:38:46.027Z,1011.42
2023-03-16T00:39:46.007Z,1011.41
2023-03-16T00:40:45.966Z,1011.39
2023-03-16T00:41:45.936Z,1011.40
2023-03-16T00:42:45.905Z,1011.42
2023-03-16T00:43:45.876Z,1011.41
2023-03-16T00:44:45.846Z,1011.39
2023-03-16T00:45:45.854Z,1011.38
2023-03-16T00:46:45.787Z,1011.39
2023-03-16T00:47:45.759Z,1011.35
2023-03-16T00:48:45.725Z,1011.35
2023-03-16T00:49:45.700Z,1011.37
2023-03-16T00:50:45.668Z,1011.41
2023-03-16T00:51:45.634Z,1011.46
2023-03-16T00:52:45.605Z,1011.48
2023-03-16T00:53:45.604Z,1011.48
2023-03-16T00:54:45.544Z,1011.45
2023-03-16T00:55:45.514Z,1011.50
2023-03-16T00:56:45.483Z,1011.48
2023-03-16T00:57:45.465Z,1011.46
2023-03-16T00:58:45.424Z,1011.48
2023-03-16T00:59:45.395Z,1011.43
2023-03-16T01:00:45.364Z,1011.48
2023-03-16T01:01:45.334Z,1011.47
2023-03-16T01:02:45.428Z,1011.49
2023-03-16T01:03:45.274Z,1011.51
2023-03-16T01:04:45.248Z,1011.49
2023-03-16T01:05:45.217Z,1011.54
2023-03-16T01:06:45.188Z,1011.52
2023-03-16T01:07:45.269Z,1011.54
2023-03-16T01:08:45.143Z,1011.57
2023-03-16T01:09:45.109Z,1011.53
2023-03-16T01:10:45.069Z,1011.53
2023-03-16T01:11:45.038Z,1011.50
2023-03-16T01:12:45.024Z,1011.50
2023-03-16T01:13:44.975Z,1011.50
2023-03-16T01:14:44.945Z,1011.46
2023-03-16T01:15:44.913Z,1011.49
2023-03-16T01:16:44.911Z,1011.45
2023-03-16T01:17:44.858Z,1011.47
2023-03-16T01:18:44.827Z,1011.43
2023-03-16T01:19:44.800Z,1011.40
2023-03-16T01:20:44.768Z,1011.41
2023-03-16T01:21:44.746Z,1011.39
2023-03-16T01:22:44.705Z,1011.42
2023-03-16T01:23:44.694Z,1011.38
2023-03-16T01:24:44.645Z,1011.39
2023-03-16T01:25:44.635Z,1011.38
2023-03-16T01:26:44.587Z,1011.35
2023-03-16T01:27:44.554Z,1011.29
2023-03-16T01:28:44.529Z,1011.31
2023-03-16T01:29:44.555Z,1011.26
2023-03-16T01:30:44.511Z,1011.26
2023-03-16T01:31:44.434Z,1011.23
2023-03-16T01:32:44.473Z,1011.20
2023-03-16T01:33:44.378Z,1011.13
2023-03-16T01:34:44.347Z,1011.11
2023-03-16T01:35:44.330Z,1011.06
2023-03-16T01:36:44.290Z,1011.06
2023-03-16T01:37:44.273Z,1011.03
2023-03-16T01:38:44.252Z,1011.02
2023-03-16T01:39:44.191Z,1010.96
2023-03-16T01:40:44.163Z,1010.96
2023-03-16T01:41:44.153Z,1010.98
2023-03-16T01:42:44.117Z,1010.92
2023-03-16T01:43:44.069Z,1010.93
2023-03-16T01:44:44.041Z,1010.89
2023-03-16T01:45:44.010Z,1010.90
2023-03-16T01:46:43.983Z,1010.88
2023-03-16T01:47:43.963Z,1010.83
2023-03-16T01:48:43.937Z,1010.89
2023-03-16T01:49:43.888Z,1010.87
2023-03-16T01:50:43.860Z,1010.88
2023-03-16T01:51:43.829Z,1010.87
2023-03-16T01:52:43.795Z,1010.89
2023-03-16T01:53:43.767Z,1010.81
2023-03-16T01:54:43.757Z,1010.79
2023-03-16T01:55:43.706Z,1010.74
2023-03-16T01:56:43.684Z,1010.71
2023-03-16T01:57:43.665Z,1010.75
2023-03-16T01:58:43.624Z,1010.73
2023-03-16T01:59:43.611Z,1010.73
2023-03-16T02:00:43.559Z,1010.74
2023-03-16T02:01:43.579Z,1010.74
2023-03-16T02:02:43.519Z,1010.77
2023-03-16T02:03:43.472Z,1010.78
2023-03-16T02:04:43.597Z,1010.79
2023-03-16T02:05:43.413Z,1010.76
2023-03-16T02:06:43.376Z,1010.81
2023-03-16T02:07:43.341Z,1010.77
2023-03-16T02:08:43.316Z,1010.81
2023-03-16T02:09:43.281Z,1010.77
2023-03-16T02:10:43.257Z,1010.74
2023-03-16T02:11:43.228Z,1010.79
2023-03-16T02:12:43.197Z,1010.75
2023-03-16T02:13:43.185Z,1010.71
2023-03-16T02:14:43.132Z,1010.66
2023-03-16T02:15:43.193Z,1010.66
2023-03-16T02:16:43.075Z,1010.68
2023-03-16T02:17:43.041Z,1010.60
2023-03-16T02:18:43.018Z,1010.62
2023-03-16T02:19:42.980Z,1010.64
2023-03-16T02:20:42.951Z,1010.63
2023-03-16T02:21:42.924Z,1010.60
2023-03-16T02:22:42.891Z,1010.62
2023-03-16T02:23:42.860Z,1010.61
2023-03-16T02:24:42.830Z,1010.53
2023-03-16T02:25:42.796Z,1010.61
2023-03-16T02:26:42.769Z,1010.54
2023-03-16T02:27:42.739Z,1010.51
2023-03-16T02:28:42.710Z,1010.52
2023-03-16T02:29:42.706Z,1010.47
2023-03-16T02:30:42.758Z,1010.49
2023-03-16T02:31:42.623Z,1010.46
2023-03-16T02:32:42.660Z,1010.46
2023-03-16T02:33:42.565Z,1010.45
2023-03-16T02:34:42.526Z,1010.51
2023-03-16T02:35:42.581Z,1010.44
2023-03-16T02:36:42.466Z,1010.49
2023-03-16T02:37:42.438Z,1010.38
2023-03-16T02:38:42.406Z,1010.44
2023-03-16T02:39:42.391Z,1010.41
2023-03-16T02:40:42.343Z,1010.43
2023-03-16T02:41:42.329Z,1010.42
2023-03-16T02:42:42.283Z,1010.37
2023-03-16T02:43:42.254Z,1010.32
2023-03-16T02:44:42.231Z,1010.30
2023-03-16T02:45:42.214Z,1010.32
2023-03-16T02:46:42.205Z,1010.33
2023-03-16T02:47:42.129Z,1010.34
2023-03-16T02:48:42.099Z,1010.32
2023-03-16T02:49:42.072Z,1010.31
2023-03-16T02:50:42.042Z,1010.34
2023-03-16T02:51:42.009Z,1010.37
2023-03-16T02:52:41.978Z,1010.36
2023-03-16T02:53:41.952Z,1010.33
2023-03-16T02:54:41.920Z,1010.36
2023-03-16T02:55:41.889Z,1010.33
2023-03-16T02:56:41.858Z,1010.34
2023-03-16T02:57:41.850Z,1010.30
2023-03-16T02:58:41.797Z,1010.26
2023-03-16T02:59:41.765Z,1010.27
2023-03-16T03:00:41.741Z,1010.28
2023-03-16T03:01:41.723Z,1010.29
2023-03-16T03:02:41.674Z,1010.28
2023-03-16T03:03:41.647Z,1010.23
2023-03-16T03:04:41.614Z,1010.25
2023-03-16T03:05:41.593Z,1010.22
2023-03-16T03:06:41.557Z,1010.21
2023-03-16T03:07:41.524Z,1010.24
2023-03-16T03:08:41.493Z,1010.21
2023-03-16T03:09:41.463Z,1010.21
2023-03-16T03:10:41.432Z,1010.17
2023-03-16T03:11:41.406Z,1010.15
2023-03-16T03:12:41.373Z,1010.11
2023-03-16T03:13:41.342Z,1010.14
2023-03-16T03:14:41.312Z,1010.10
2023-03-16T03:15:41.282Z,1010.11
2023-03-16T03:16:41.298Z,1010.04
2023-03-16T03:17:41.250Z,1010.10
2023-03-16T03:18:41.195Z,1010.15
2023-03-16T03:19:41.160Z,1010.13
2023-03-16T03:20:41.130Z,1010.13
2023-03-16T03:21:41.101Z,1010.17
2023-03-16T03:22:41.076Z,1010.19
2023-03-16T03:23:41.051Z,1010.25
2023-03-16T03:24:41.013Z,1010.19
2023-03-16T03:25:40.979Z,1010.21
2023-03-16T03:26:40.948Z,1010.19
2023-03-16T03:27:40.962Z,1010.25
2023-03-16T03:28:40.887Z,1010.22
2023-03-16T03:29:40.858Z,1010.19
2023-03-16T03:30:40.827Z,1010.17
2023-03-16T03:31:40.917Z,1010.13
2023-03-16T03:32:40.852Z,1010.17
2023-03-16T03:33:40.757Z,1010.17
2023-03-16T03:34:40.706Z,1010.14
2023-03-16T03:35:40.703Z,1010.12
2023-03-16T03:36:40.645Z,1010.06
2023-03-16T03:37:40.614Z,1010.07
2023-03-16T03:38:40.584Z,1010.04
2023-03-16T03:39:40.561Z,1010.05
2023-03-16T03:40:40.523Z,1010.01
2023-03-16T03:41:40.492Z,1009.99
2023-03-16T03:42:40.464Z,1009.96
2023-03-16T03:43:40.434Z,1009.95
2023-03-16T03:44:40.406Z,1009.93
2023-03-16T03:45:40.383Z,1009.94
2023-03-16T03:46:40.466Z,1009.92
2023-03-16T03:47:40.311Z,1009.95
2023-03-16T03:48:40.287Z,1009.90
2023-03-16T03:49:40.269Z,1009.89
2023-03-16T03:50:40.220Z,1009.87
2023-03-16T03:51:40.189Z,1009.88
2023-03-16T03:52:40.158Z,1009.86
2023-03-16T03:53:40.131Z,1009.86
2023-03-16T03:54:40.107Z,1009.84
2023-03-16T03:55:40.068Z,1009.89
2023-03-16T03:56:40.039Z,1009.89
2023-03-16T03:57:40.006Z,1009.91
2023-03-16T03:58:39.982Z,1009.89
2023-03-16T03:59:39.944Z,1009.88
2023-03-16T04:00:39.938Z,1009.88
2023-03-16T04:01:39.884Z,1009.89
2023-03-16T04:02:39.997Z,1009.88
2023-03-16T04:03:39.823Z,1009.91
2023-03-16T04:04:39.795Z,1009.82
2023-03-16T04:05:39.819Z,1009.80
2023-03-16T04:06:39.744Z,1009.79
2023-03-16T04:07:39.701Z,1009.83
2023-03-16T04:08:39.672Z,1009.86
2023-03-16T04:09:39.641Z,1009.79
2023-03-16T04:10:39.621Z,1009.81
2023-03-16T04:11:39.577Z,1009.80
2023-03-16T04:12:39.552Z,1009.81
2023-03-16T04:13:39.525Z,1009.82
2023-03-16T04:14:39.498Z,1009.76
2023-03-16T04:15:39.474Z,1009.73
2023-03-16T04:16:39.496Z,1009.70
2023-03-16T04:17:39.396Z,1009.68
2023-03-16T04:18:39.370Z,1009.64
2023-03-16T04:19:39.336Z,1009.66
2023-03-16T04:20:39.307Z,1009.65
2023-03-16T04:21:39.294Z,1009.62
2023-03-16T04:22:39.257Z,1009.58
2023-03-16T04:23:39.214Z,1009.57
2023-03-16T04:24:39.189Z,1009.51
2023-03-16T04:25:39.154Z,1009.49
2023-03-16T04:26:39.126Z,1009.50
2023-03-16T04:27:39.094Z,1009.54
2023-03-16T04:28:39.062Z,1009.52
2023-03-16T04:29:39.033Z,1009.57
2023-03-16T04:30:39.052Z,1009.55
2023-03-16T04:31:38.971Z,1009.50
2023-03-16T04:32:38.976Z,1009.49
2023-03-16T04:33:38.908Z,1009.48
2023-03-16T04:34:38.885Z,1009.45
2023-03-16T04:35:38.949Z,1009.41
2023-03-16T04:36:38.820Z,1009.36
2023-03-16T04:37:38.813Z,1009.38
2023-03-16T04:38:38.759Z,1009.40
2023-03-16T04:39:38.727Z,1009.38
2023-03-16T04:40:38.704Z,1009.41
2023-03-16T04:41:38.667Z,1009.42
2023-03-16T04:42:38.643Z,1009.40
2023-03-16T04:43:38.620Z,1009.43
2023-03-16T04:44:38.577Z,1009.40
2023-03-16T04:45:38.546Z,1009.43
2023-03-16T04:46:38.673Z,1009.44
2023-03-16T04:47:38.486Z,1009.45
2023-03-16T04:48:38.458Z,1009.41
2023-03-16T04:49:38.424Z,1009.41
2023-03-16T04:50:38.397Z,1009.44
2023-03-16T04:51:38.367Z,1009.46
2023-03-16T04:52:38.336Z,1009.37
2023-03-16T04:53:38.337Z,1009.45
2023-03-16T04:54:38.268Z,1009.39
2023-03-16T04:55:38.251Z,1009.43
2023-03-16T04:56:38.210Z,1009.40
2023-03-16T04:57:38.183Z,1009.42
2023-03-16T04:58:38.153Z,1009.35
2023-03-16T04:59:38.119Z,1009.42
2023-03-16T05:00:38.092Z,1009.37
2023-03-16T05:01:38.197Z,1009.36
2023-03-16T05:02:38.037Z,1009.42
2023-03-16T05:03:38.010Z,1009.40
2023-03-16T05:04:37.969Z,1009.32
2023-03-16T05:05:38.040Z,1009.38
2023-03-16T05:06:37.908Z,1009.37
2023-03-16T05:07:37.876Z,1009.36
2023-03-16T05:08:37.850Z,1009.32
2023-03-16T05:09:37.833Z,1009.31
2023-03-16T05:10:37.786Z,1009.34
2023-03-16T05:11:37.765Z,1009.29
2023-03-16T05:12:37.719Z,1009.29
2023-03-16T05:13:37.693Z,1009.25
2023-03-16T05:14:37.660Z,1009.26
2023-03-16T05:15:37.658Z,1009.27
2023-03-16T05:16:37.598Z,1009.26
2023-03-16T05:17:37.574Z,1009.27
2023-03-16T05:18:37.547Z,1009.24
2023-03-16T05:19:37.508Z,1009.24
2023-03-16T05:20:37.478Z,1009.24
2023-03-16T05:21:37.447Z,1009.19
2023-03-16T05:22:37.446Z,1009.23
2023-03-16T05:23:37.386Z,1009.20
2023-03-16T05:24:37.359Z,1009.18
2023-03-16T05:25:37.342Z,1009.21
2023-03-16T05:26:37.299Z,1009.19
2023-03-16T05:27:37.265Z,1009.15
2023-03-16T05:28:37.244Z,1009.18
2023-03-16T05:29:37.226Z,1009.18
2023-03-16T05:30:37.179Z,1009.15
2023-03-16T05:31:37.203Z,1009.17
2023-03-16T05:32:37.215Z,1009.22
2023-03-16T05:33:37.104Z,1009.18
2023-03-16T05:34:37.060Z,1009.25
2023-03-16T05:35:37.055Z,1009.18
2023-03-16T05:36:37.010Z,1009.20
2023-03-16T05:37:36.978Z,1009.20
2023-03-16T05:38:36.945Z,1009.23
2023-03-16T05:39:36.906Z,1009.24
2023-03-16T05:40:36.906Z,1009.24
2023-03-16T05:41:36.875Z,1009.21
2023-03-16T05:42:36.818Z,1009.20
2023-03-16T05:43:36.793Z,1009.19
2023-03-16T05:44:36.753Z,1009.19
2023-03-16T05:45:36.742Z,1009.19
2023-03-16T05:46:36.731Z,1009.18
2023-03-16T05:47:36.664Z,1009.15
2023-03-16T05:48:36.636Z,1009.14
2023-03-16T05:49:36.603Z,1009.11
2023-03-16T05:50:36.571Z,1009.10
2023-03-16T05:51:36.544Z,1009.14
2023-03-16T05:52:36.513Z,1009.14
2023-03-16T05:53:36.492Z,1009.16
2023-03-16T05:54:36.465Z,1009.20
2023-03-16T05:55:36.425Z,1009.25
2023-03-16T05:56:36.393Z,1009.29
2023-03-16T05:57:36.383Z,1009.27
2023-03-16T05:58:36.333Z,1009.31
2023-03-16T05:59:36.299Z,1009.25
2023-03-16T06:00:36.269Z,1009.27
2023-03-16T06:01:36.253Z,1009.29
2023-03-16T06:02:36.291Z,1009.26
2023-03-16T06:03:36.214Z,1009.26
2023-03-16T06:04:36.153Z,1009.28
2023-03-16T06:05:36.119Z,1009.25
2023-03-16T06:06:36.088Z,1009.29
2023-03-16T06:07:36.056Z,1009.27
2023-03-16T06:08:36.029Z,1009.30
2023-03-16T06:09:35.997Z,1009.29
2023-03-16T06:10:35.967Z,1009.31
2023-03-16T06:11:35.942Z,1009.27
2023-03-16T06:12:35.910Z,1009.25
2023-03-16T06:13:35.899Z,1009.24
2023-03-16T06:14:35.846Z,1009.25
2023-03-16T06:15:35.821Z,1009.20
2023-03-16T06:16:35.836Z,1009.26
2023-03-16T06:17:35.757Z,1009.27
2023-03-16T06:18:35.729Z,1009.27
2023-03-16T06:19:35.696Z,1009.25
2023-03-16T06:20:35.701Z,1009.25
2023-03-16T06:21:35.714Z,1009.27
2023-03-16T06:22:35.606Z,1009.31
2023-03-16T06:23:35.576Z,1009.23
2023-03-16T06:24:35.548Z,1009.27
2023-03-16T06:25:35.513Z,1009.27
2023-03-16T06:26:35.524Z,1009.26
2023-03-16T06:27:35.464Z,1009.24
2023-03-16T06:28:35.431Z,1009.22
2023-03-16T06:29:35.422Z,1009.23
2023-03-16T06:30:35.371Z,1009.22
2023-03-16T06:31:35.424Z,1009.25
2023-03-16T06:32:35.378Z,1009.19
2023-03-16T06:33:35.338Z,1009.18
2023-03-16T06:34:37.613Z,1009.20
2023-03-16T06:35:35.234Z,1009.18
2023-03-16T06:36:35.188Z,1009.14
2023-03-16T06:37:35.158Z,1009.22
2023-03-16T06:38:35.126Z,1009.20
2023-03-16T06:39:35.101Z,1009.23
2023-03-16T06:40:35.067Z,1009.24
2023-03-16T06:41:35.043Z,1009.23
2023-03-16T06:42:35.009Z,1009.25
2023-03-16T06:43:34.981Z,1009.21
2023-03-16T06:44:34.950Z,1009.20
2023-03-16T06:45:34.966Z,1009.22
2023-03-16T06:46:34.895Z,1009.20
2023-03-16T06:47:34.858Z,1009.21
2023-03-16T06:48:34.854Z,1009.20
2023-03-16T06:49:34.809Z,1009.23
2023-03-16T06:50:34.767Z,1009.22
2023-03-16T06:51:34.732Z,1009.22
2023-03-16T06:52:34.702Z,1009.20
2023-03-16T06:53:34.670Z,1009.23
2023-03-16T06:54:34.646Z,1009.26
2023-03-16T06:55:34.623Z,1009.27
2023-03-16T06:56:34.585Z,1009.27
2023-03-16T06:57:34.552Z,1009.33
2023-03-16T06:58:34.525Z,1009.30
2023-03-16T06:59:34.510Z,1009.28
2023-03-16T07:00:34.466Z,1009.27
2023-03-16T07:01:34.514Z,1009.33
2023-03-16T07:02:34.403Z,1009.33
2023-03-16T07:03:34.392Z,1009.30
2023-03-16T07:04:34.387Z,1009.35
2023-03-16T07:05:34.324Z,1009.37
2023-03-16T07:06:34.284Z,1009.31
2023-03-16T07:07:34.248Z,1009.37
2023-03-16T07:08:34.222Z,1009.36
2023-03-16T07:09:36.749Z,1009.39
2023-03-16T07:10:34.163Z,1009.41
2023-03-16T07:11:34.144Z,1009.42
2023-03-16T07:12:34.108Z,1009.39
2023-03-16T07:13:34.072Z,1009.43
2023-03-16T07:14:34.038Z,1009.36
2023-03-16T07:15:34.015Z,1009.35
2023-03-16T07:16:34.019Z,1009.31
2023-03-16T07:17:33.981Z,1009.32
2023-03-16T07:18:33.921Z,1009.30
2023-03-16T07:19:33.904Z,1009.27
2023-03-16T07:20:33.893Z,1009.27
2023-03-16T07:21:33.829Z,1009.26
2023-03-16T07:22:33.803Z,1009.26
2023-03-16T07:23:33.771Z,1009.19
2023-03-16T07:24:33.740Z,1009.22
2023-03-16T07:25:33.712Z,1009.14
2023-03-16T07:26:33.684Z,1009.13
2023-03-16T07:27:33.657Z,1009.13
2023-03-16T07:28:33.895Z,1009.11
2023-03-16T07:29:33.593Z,1009.13
2023-03-16T07:30:33.560Z,1009.13
2023-03-16T07:31:33.589Z,1009.13
2023-03-16T07:32:33.537Z,1009.09
2023-03-16T07:33:33.489Z,1009.15
2023-03-16T07:34:33.445Z,1009.12
2023-03-16T07:35:33.411Z,1009.13
2023-03-16T07:36:33.380Z,1009.13
2023-03-16T07:37:33.352Z,1009.18
2023-03-16T07:38:33.327Z,1009.16
2023-03-16T07:39:33.293Z,1009.24
2023-03-16T07:40:33.259Z,1009.19
2023-03-16T07:41:33.232Z,1009.23
2023-03-16T07:42:33.203Z,1009.19
2023-03-16T07:43:33.178Z,1009.24
2023-03-16T07:44:33.142Z,1009.23
2023-03-16T07:45:33.114Z,1009.21
2023-03-16T07:46:33.135Z,1009.32
2023-03-16T07:47:33.053Z,1009.28
2023-03-16T07:48:33.023Z,1009.22
2023-03-16T07:49:33.021Z,1009.29
2023-03-16T07:50:32.967Z,1009.27
2023-03-16T07:51:32.933Z,1009.27
2023-03-16T07:52:32.898Z,1009.23
2023-03-16T07:53:32.875Z,1009.27
2023-03-16T07:54:32.848Z,1009.33
2023-03-16T07:55:32.830Z,1009.28
2023-03-16T07:56:47.416Z,1009.30
2023-03-16T07:57:32.760Z,1009.28
2023-03-16T07:58:32.721Z,1009.30
2023-03-16T07:59:32.708Z,1009.34
2023-03-16T08:00:32.721Z,1009.32
2023-03-16T08:01:32.636Z,1009.33
2023-03-16T08:02:32.681Z,1009.33
2023-03-16T08:03:32.624Z,1009.35
2023-03-16T08:04:32.576Z,1009.38
2023-03-16T08:05:32.554Z,1009.32
2023-03-16T08:06:32.486Z,1009.34
2023-03-16T08:07:32.466Z,1009.33
2023-03-16T08:08:32.425Z,1009.33
2023-03-16T08:09:32.401Z,1009.34
2023-03-16T08:10:32.692Z,1009.36
2023-03-16T08:11:32.370Z,1009.35
2023-03-16T08:12:32.392Z,1009.41
2023-03-16T08:13:32.285Z,1009.39
2023-03-16T08:14:32.253Z,1009.45
2023-03-16T08:15:32.282Z,1009.47
2023-03-16T08:16:32.304Z,1009.45
2023-03-16T08:17:32.191Z,1009.48
2023-03-16T08:18:32.165Z,1009.46
2023-03-16T08:19:32.103Z,1009.46
2023-03-16T08:20:32.467Z,1009.48
2023-03-16T08:21:32.081Z,1009.46
2023-03-16T08:22:32.027Z,1009.46
2023-03-16T08:23:31.988Z,1009.48
2023-03-16T08:24:31.956Z,1009.47
2023-03-16T08:25:31.927Z,1009.45
2023-03-16T08:26:31.903Z,1009.50
2023-03-16T08:27:31.879Z,1009.45
2023-03-16T08:28:31.908Z,1009.48
2023-03-16T08:29:31.813Z,1009.50
2023-03-16T08:30:32.154Z,1009.44
2023-03-16T08:31:31.880Z,1009.46
2023-03-16T08:32:31.768Z,1009.41
2023-03-16T08:33:31.716Z,1009.46
2023-03-16T08:34:31.670Z,1009.43
2023-03-16T08:35:31.668Z,1009.43
2023-03-16T08:36:31.612Z,1009.48
2023-03-16T08:37:31.595Z,1009.48
2023-03-16T08:38:31.563Z,1009.48
2023-03-16T08:39:31.525Z,1009.48
2023-03-16T08:40:32.069Z,1009.46
2023-03-16T08:41:31.466Z,1009.50
2023-03-16T08:42:31.429Z,1009.46
2023-03-16T08:43:31.402Z,1009.49
2023-03-16T08:44:31.372Z,1009.48
2023-03-16T08:45:31.341Z,1009.43
2023-03-16T08:46:31.415Z,1009.44
2023-03-16T08:47:31.298Z,1009.39
2023-03-16T08:48:31.260Z,1009.44
2023-03-16T08:49:31.226Z,1009.41
2023-03-16T08:50:31.544Z,1009.41
2023-03-16T08:51:31.221Z,1009.40
2023-03-16T08:52:31.136Z,1009.36
2023-03-16T08:53:31.130Z,1009.36
2023-03-16T08:54:31.090Z,1009.35
2023-03-16T08:55:31.049Z,1009.34
2023-03-16T08:56:31.040Z,1009.37
2023-03-16T08:57:31.024Z,1009.44
2023-03-16T08:58:31.019Z,1009.42
2023-03-16T08:59:30.929Z,1009.39
2023-03-16T09:00:31.344Z,1009.41
2023-03-16T09:01:30.904Z,1009.43
2023-03-16T09:02:30.840Z,1009.41
2023-03-16T09:03:30.842Z,1009.33
2023-03-16T09:04:30.848Z,1009.37
2023-03-16T09:05:30.771Z,1009.30
2023-03-16T09:06:30.733Z,1009.31
2023-03-16T09:07:30.711Z,1009.29
2023-03-16T09:08:30.670Z,1009.28
2023-03-16T09:09:30.669Z,1009.37
2023-03-16T09:10:30.983Z,1009.31
2023-03-16T09:11:30.592Z,1009.36
2023-03-16T09:12:30.563Z,1009.38
2023-03-16T09:13:30.533Z,1009.39
2023-03-16T09:14:30.499Z,1009.40
2023-03-16T09:15:30.472Z,1009.43
2023-03-16T09:16:30.505Z,1009.39
2023-03-16T09:17:30.413Z,1009.38
2023-03-16T09:18:30.381Z,1009.42
2023-03-16T09:19:37.686Z,1009.39
2023-03-16T09:20:33.096Z,1009.38
2023-03-16T09:21:30.295Z,1009.40
2023-03-16T09:22:30.267Z,1009.40
2023-03-16T09:23:30.242Z,1009.45
2023-03-16T09:24:30.220Z,1009.45
2023-03-16T09:25:30.556Z,1009.45
2023-03-16T09:26:30.253Z,1009.43
2023-03-16T09:27:30.131Z,1009.45
2023-03-16T09:28:30.109Z,1009.48
2023-03-16T09:29:30.067Z,1009.48
2023-03-16T09:30:30.312Z,1009.48
2023-03-16T09:31:30.053Z,1009.47
2023-03-16T09:32:30.006Z,1009.53
2023-03-16T09:33:29.957Z,1009.46
2023-03-16T09:34:30.507Z,1009.49
2023-03-16T09:35:30.124Z,1009.48
2023-03-16T09:36:29.865Z,1009.45
2023-03-16T09:37:39.963Z,1009.44
2023-03-16T09:38:29.812Z,1009.45
2023-03-16T09:39:29.781Z,1009.40
2023-03-16T09:40:29.782Z,1009.42
2023-03-16T09:41:29.743Z,1009.44
2023-03-16T09:42:29.698Z,1009.45
2023-03-16T09:43:29.674Z,1009.47
2023-03-16T09:44:29.791Z,1009.44
2023-03-16T09:45:30.038Z,1009.37
2023-03-16T09:46:29.605Z,1009.47
2023-03-16T09:47:29.590Z,1009.46
2023-03-16T09:48:29.525Z,1009.45
2023-03-16T09:49:29.500Z,1009.44
2023-03-16T09:50:35.248Z,1009.52
2023-03-16T09:51:29.438Z,1009.47
2023-03-16T09:52:29.412Z,1009.54
2023-03-16T09:53:29.437Z,1009.55
2023-03-16T09:54:29.494Z,1009.57
2023-03-16T09:55:29.599Z,1009.53
2023-03-16T09:56:29.301Z,1009.52
2023-03-16T09:57:29.290Z,1009.55
2023-03-16T09:58:29.245Z,1009.52
2023-03-16T09:59:29.210Z,1009.54
2023-03-16T10:00:29.391Z,1009.47
2023-03-16T10:01:29.212Z,1009.51
2023-03-16T10:02:29.128Z,1009.54
2023-03-16T10:03:29.100Z,1009.50
2023-03-16T10:04:29.106Z,1009.51
2023-03-16T10:05:29.040Z,1009.49
2023-03-16T10:06:29.014Z,1009.52
2023-03-16T10:07:28.986Z,1009.46
2023-03-16T10:08:28.957Z,1009.41
2023-03-16T10:09:28.931Z,1009.43
2023-03-16T10:10:29.207Z,1009.45
2023-03-16T10:11:28.870Z,1009.43
2023-03-16T10:12:28.843Z,1009.44
2023-03-16T10:13:28.832Z,1009.47
2023-03-16T10:14:28.908Z,1009.44
2023-03-16T10:15:28.757Z,1009.41
2023-03-16T10:16:28.746Z,1009.40
2023-03-16T10:17:28.721Z,1009.38
2023-03-16T10:18:28.672Z,1009.42
2023-03-16T10:19:28.656Z,1009.41
2023-03-16T10:20:28.904Z,1009.45
2023-03-16T10:21:28.585Z,1009.43
2023-03-16T10:22:28.559Z,1009.45
2023-03-16T10:23:28.528Z,1009.38
2023-03-16T10:24:28.605Z,1009.41
2023-03-16T10:25:28.485Z,1009.40
2023-03-16T10:26:28.444Z,1009.40
2023-03-16T10:27:28.419Z,1009.33
2023-03-16T10:28:28.396Z,1009.32
2023-03-16T10:29:28.411Z,1009.30
2023-03-16T10:30:28.754Z,1009.35
2023-03-16T10:31:28.437Z,1009.30
2023-03-16T10:32:28.883Z,1009.26
2023-03-16T10:33:28.243Z,1009.27
2023-03-16T10:34:28.220Z,1009.24
2023-03-16T10:35:28.553Z,1009.26
2023-03-16T10:36:28.185Z,1009.27
2023-03-16T10:37:28.131Z,1009.20
2023-03-16T10:38:28.101Z,1009.20
2023-03-16T10:39:29.200Z,1009.19
2023-03-16T10:40:28.409Z,1009.17
2023-03-16T10:41:28.015Z,1009.20
2023-03-16T10:42:27.987Z,1009.21
2023-03-16T10:43:27.972Z,1009.19
2023-03-16T10:44:27.966Z,1009.19
2023-03-16T10:45:28.136Z,1009.21
2023-03-16T10:46:28.084Z,1009.19
2023-03-16T10:47:27.848Z,1009.15
2023-03-16T10:48:27.826Z,1009.15
2023-03-16T10:49:27.798Z,1009.17
2023-03-16T10:50:28.203Z,1009.14
2023-03-16T10:51:27.736Z,1009.20
2023-03-16T10:52:27.710Z,1009.17
2023-03-16T10:53:27.749Z,1009.14
2023-03-16T10:54:27.781Z,1009.14
2023-03-16T10:55:28.035Z,1009.16
2023-03-16T10:56:27.602Z,1009.10
2023-03-16T10:57:27.572Z,1009.09
2023-03-16T10:58:29.642Z,1009.12
2023-03-16T10:59:27.518Z,1009.15
2023-03-16T11:00:27.490Z,1009.11
2023-03-16T11:01:27.527Z,1009.07
2023-03-16T11:02:27.429Z,1009.04
2023-03-16T11:03:27.403Z,1009.12
2023-03-16T11:04:27.481Z,1009.07
2023-03-16T11:05:27.693Z,1009.02
2023-03-16T11:06:27.330Z,1009.03
2023-03-16T11:07:27.295Z,1008.93
2023-03-16T11:08:27.288Z,1008.95
2023-03-16T11:09:27.234Z,1008.98
2023-03-16T11:10:27.207Z,1008.95
2023-03-16T11:11:27.179Z,1008.90
2023-03-16T11:12:27.282Z,1008.90
2023-03-16T11:13:27.123Z,1008.87
2023-03-16T11:14:27.100Z,1008.93
2023-03-16T11:15:27.102Z,1008.86
2023-03-16T11:16:27.117Z,1008.88
2023-03-16T11:17:27.036Z,1008.85
2023-03-16T11:18:26.987Z,1008.82
2023-03-16T11:19:26.961Z,1008.79
2023-03-16T11:20:26.932Z,1008.85
2023-03-16T11:21:26.904Z,1008.84
2023-03-16T11:22:26.875Z,1008.82
2023-03-16T11:23:26.868Z,1008.85
2023-03-16T11:24:26.817Z,1008.83
2023-03-16T11:25:27.057Z,1008.87
2023-03-16T11:26:26.764Z,1008.88
2023-03-16T11:27:26.738Z,1008.83
2023-03-16T11:28:26.706Z,1008.80
2023-03-16T11:29:26.683Z,1008.81
2023-03-16T11:30:26.660Z,1008.79
2023-03-16T11:31:26.672Z,1008.80
2023-03-16T11:32:26.654Z,1008.81
2023-03-16T11:33:26.588Z,1008.79
2023-03-16T11:34:26.540Z,1008.74
2023-03-16T11:35:26.976Z,1008.68
2023-03-16T11:36:26.505Z,1008.59
2023-03-16T11:37:26.452Z,1008.65
2023-03-16T11:38:26.428Z,1008.57
2023-03-16T11:39:26.401Z,1008.52
2023-03-16T11:40:26.373Z,1008.45
2023-03-16T11:41:26.342Z,1008.53
2023-03-16T11:42:26.318Z,1008.44
2023-03-16T11:43:26.289Z,1008.42
2023-03-16T11:44:26.264Z,1008.37
2023-03-16T11:45:26.261Z,1008.35
2023-03-16T11:46:26.291Z,1008.30
2023-03-16T11:47:26.179Z,1008.33
2023-03-16T11:48:26.153Z,1008.34
2023-03-16T11:49:26.220Z,1008.36
2023-03-16T11:50:26.095Z,1008.35
2023-03-16T11:51:26.077Z,1008.36
2023-03-16T11:52:26.034Z,1008.32
2023-03-16T11:53:26.004Z,1008.33
2023-03-16T11:54:25.976Z,1008.31
2023-03-16T11:55:25.970Z,1008.33
2023-03-16T11:56:25.920Z,1008.25
2023-03-16T11:57:25.893Z,1008.27
2023-03-16T11:58:25.866Z,1008.34
2023-03-16T11:59:25.832Z,1008.29
2023-03-16T12:00:25.810Z,1008.30
2023-03-16T12:01:25.881Z,1008.27
2023-03-16T12:02:25.909Z,1008.26
2023-03-16T12:03:25.891Z,1008.31
2023-03-16T12:04:25.750Z,1008.24
2023-03-16T12:05:25.705Z,1008.21